Aérodrome :
LOGIN :

S'inscrire | Disclaimer

   EN    FR    IT 

 










Légende :    VFR   VFR Marginal   IFR   IFR Intensif   IFR Très Intensif
Visi : 
Plafond : 
>= 8 km
>= 3000ft
5 à 8 km
1000 à 3000 ft
1500m à 5 km
500 à 1000 ft
800 à 1500m
200 à 500 ft
< 800m
< 200 ft
Symboles :   Orages  Brouillard  Fortes neiges  Fortes précipitations  Vent > 20 kt
SIGMETs :   Divers  Orages  Givrage  Turbulence  Onde Orograph.  Cendres Volcan.







- Altitude de l'aérodrome : 160 ft
- Code IATA : FMO


EDDG - Münster Osnabrück Int.

DERNIER METAR :
  • 220420Z 15008KT 110V180 8000 -SNRA FEW007 BKN011 02/01 Q1006 BECMG BKN008

METARs EXPIRÉS :
  • 220350Z 14010KT 100V170 9999 FEW007 BKN012 02/01 Q1006 BECMG BKN008
  • 220320Z 13009KT 090V160 9999 FEW009 BKN016 02/00 Q1006 BECMG BKN010
  • 220250Z 13008KT 090V170 9000 -SNRA FEW012 BKN022 02/00 Q1007 NOSIG
  • 220220Z 14009KT 120V180 9999 -SNRA FEW028 SCT035 BKN045 02/M00 Q1008 NOSIG
  • 220150Z 14008KT 110V170 9999 SCT040 BKN070 02/M00 Q1008 NOSIG
  • 220120Z 14007KT 100V170 CAVOK 02/M00 Q1009 NOSIG

TAF TAF EDDG
Valide du 22 à 00h jusqu'au 23 à 00h UTC


212300Z 2200/2224 13006KT 9999 BKN025
PROB30
TEMPO 2201/2204 3000 -RASN BKN008
BECMG 2202/2205 BKN012
TEMPO 2204/2212 3000 -DZRA BKN008
PROB30
TEMPO 2205/2210 2000 -DZ BKN004
BECMG 2206/2209 27008KT
BECMG 2212/2215 SCT012 BKN015
Pas de NOTAMs connus pour ce terrain.
1 SIGMET publié pour la FIR Langen (EDGG) :
 
Givrage fort avec pluie surfondue
EDGG SIGMET 6 VALID 220400/220600 EDZF
EDGG LANGEN FIR SEV ICE (FZRA) OBS WI N5123 E00916 - N5120 E01031 - N5017 E01022 - N4929 E01059 - N4808 E00932 - N4905 E00743 - N4957 E00649 - N5123 E00916 SFC/3000FT MOV SE WKN=



MET'MAP, la Météo Aéronautique d'un coup d'oeil ! - Copyright ORBIFLY Décembre 2007 - Disclaimer

ORBIFLY MET'MAP TEAM :

Programmation & Développement : Alexandra Zaïnal
Conception & Développement : Baudouin d'Aumeries
Co-Programmation & Développement : Marc-Olivier Méhu
Soutien technique & logistique : Manuel Goepfert

Contact : metmap@orbifly.com




SOURCES & CREDITS :

   NOAA